Aviation Digital Data Service (ADDS)

Output produced by TAFs form (1611 UTC 01 August 2015)
found at http://aviationweather.gov/adds/tafs/
 
KMAF 011120Z 0112/0212 15007KT P6SM FEW120 
     FM012000 15009KT P6SM SCT080 SCT250